Time,TemperatureF,DewpointF,PressureIn,WindDirection,WindDirectionDegrees,WindSpeedMPH,WindSpeedGustMPH,Humidity,HourlyPrecipIn,Conditions,Clouds,dailyrainin,SoftwareType,DateUTC
2013-01-05 00:04:00,28.4,24.4,30.46,North,0,0.0,0.0,85,0.00,,,0.00,WUHU216DAVISVP2,2013-01-05 07:04:00,
2013-01-05 00:09:00,28.2,23.4,30.46,North,0,0.0,0.0,82,0.00,,,0.00,WUHU216DAVISVP2,2013-01-05 07:09:00,
2013-01-05 00:14:00,27.9,23.9,30.46,North,0,0.0,0.0,85,0.00,,,0.00,WUHU216DAVISVP2,2013-01-05 07:14:00,
2013-01-05 00:19:00,27.8,23.6,30.46,North,0,0.0,0.0,84,0.00,,,0.00,WUHU216DAVISVP2,2013-01-05 07:19:00,
2013-01-05 00:24:00,27.8,24.1,30.46,North,0,0.0,0.0,86,0.00,,,0.00,WUHU216DAVISVP2,2013-01-05 07:24:00,
2013-01-05 00:29:00,28.1,24.1,30.46,North,0,0.0,0.0,85,0.00,,,0.00,WUHU216DAVISVP2,2013-01-05 07:29:00,
2013-01-05 00:34:00,28.1,24.1,30.45,North,0,0.0,0.0,85,0.00,,,0.00,WUHU216DAVISVP2,2013-01-05 07:34:00,
2013-01-05 00:39:00,28.3,24.3,30.45,North,0,0.0,0.0,85,0.00,,,0.00,WUHU216DAVISVP2,2013-01-05 07:39:00,
2013-01-05 00:44:00,28.5,24.5,30.46,North,0,0.0,0.0,85,0.00,,,0.00,WUHU216DAVISVP2,2013-01-05 07:44:00,
2013-01-05 00:49:00,28.7,24.7,30.46,North,0,0.0,0.0,85,0.00,,,0.00,WUHU216DAVISVP2,2013-01-05 07:49:00,
2013-01-05 00:54:00,28.9,24.7,30.46,North,0,0.0,0.0,84,0.00,,,0.00,WUHU216DAVISVP2,2013-01-05 07:54:00,
2013-01-05 00:59:00,28.9,24.4,30.46,North,0,0.0,0.0,83,0.00,,,0.00,WUHU216DAVISVP2,2013-01-05 07:59:00,
2013-01-05 01:04:00,28.7,24.2,30.46,North,0,0.0,0.0,83,0.00,,,0.00,WUHU216DAVISVP2,2013-01-05 08:04:00,
2013-01-05 01:09:00,28.8,24.6,30.46,North,0,0.0,0.0,84,0.00,,,0.00,WUHU216DAVISVP2,2013-01-05 08:09:00,
2013-01-05 01:14:00,29.0,24.8,30.46,North,0,0.0,0.0,84,0.00,,,0.00,WUHU216DAVISVP2,2013-01-05 08:14:00,
2013-01-05 01:19:00,28.9,24.4,30.46,North,0,0.0,0.0,83,0.00,,,0.00,WUHU216DAVISVP2,2013-01-05 08:19:00,
2013-01-05 01:25:00,28.7,24.2,30.46,North,0,0.0,0.0,83,0.00,,,0.00,WUHU216DAVISVP2,2013-01-05 08:25:00,
2013-01-05 01:30:00,28.6,24.1,30.46,North,0,0.0,0.0,83,0.00,,,0.00,WUHU216DAVISVP2,2013-01-05 08:30:00,
2013-01-05 01:35:00,28.7,24.5,30.46,North,0,0.0,0.0,84,0.00,,,0.00,WUHU216DAVISVP2,2013-01-05 08:35:00,
2013-01-05 01:40:00,28.5,24.0,30.46,North,0,0.0,0.0,83,0.00,,,0.00,WUHU216DAVISVP2,2013-01-05 08:40:00,
2013-01-05 01:45:00,28.0,23.8,30.46,North,0,0.0,0.0,84,0.00,,,0.00,WUHU216DAVISVP2,2013-01-05 08:45:00,
2013-01-05 01:50:00,27.9,23.4,30.46,North,0,0.0,0.0,83,0.00,,,0.00,WUHU216DAVISVP2,2013-01-05 08:50:00,
2013-01-05 01:55:00,28.0,23.5,30.46,North,0,0.0,0.0,83,0.00,,,0.00,WUHU216DAVISVP2,2013-01-05 08:55:00,
2013-01-05 02:00:00,28.0,23.2,30.46,North,0,0.0,0.0,82,0.00,,,0.00,WUHU216DAVISVP2,2013-01-05 09:00:00,
2013-01-05 02:05:00,28.0,23.5,30.46,North,0,0.0,0.0,83,0.00,,,0.00,WUHU216DAVISVP2,2013-01-05 09:05:00,
2013-01-05 02:10:00,28.0,23.2,30.46,North,0,0.0,0.0,82,0.00,,,0.00,WUHU216DAVISVP2,2013-01-05 09:10:00,
2013-01-05 02:15:00,27.6,22.8,30.46,North,0,0.0,0.0,82,0.00,,,0.00,WUHU216DAVISVP2,2013-01-05 09:15:00,
2013-01-05 02:20:00,27.4,22.6,30.46,North,0,0.0,0.0,82,0.00,,,0.00,WUHU216DAVISVP2,2013-01-05 09:20:00,
2013-01-05 02:25:00,27.3,22.8,30.46,North,0,0.0,0.0,83,0.00,,,0.00,WUHU216DAVISVP2,2013-01-05 09:25:00,
2013-01-05 02:30:00,27.3,22.8,30.46,North,0,0.0,0.0,83,0.00,,,0.00,WUHU216DAVISVP2,2013-01-05 09:30:00,
2013-01-05 02:35:00,27.3,22.8,30.46,North,0,0.0,0.0,83,0.00,,,0.00,WUHU216DAVISVP2,2013-01-05 09:35:00,
2013-01-05 02:41:00,27.3,22.8,30.46,North,0,0.0,0.0,83,0.00,,,0.00,WUHU216DAVISVP2,2013-01-05 09:41:00,
2013-01-05 02:46:00,27.5,23.0,30.46,North,0,0.0,0.0,83,0.00,,,0.00,WUHU216DAVISVP2,2013-01-05 09:46:00,
2013-01-05 02:51:00,27.3,22.2,30.46,North,0,0.0,0.0,81,0.00,,,0.00,WUHU216DAVISVP2,2013-01-05 09:51:00,
2013-01-05 02:56:00,27.1,22.6,30.46,North,0,0.0,0.0,83,0.00,,,0.00,WUHU216DAVISVP2,2013-01-05 09:56:00,
2013-01-05 03:01:00,27.1,22.3,30.46,North,0,0.0,0.0,82,0.00,,,0.00,WUHU216DAVISVP2,2013-01-05 10:01:00,
2013-01-05 03:06:00,27.1,22.3,30.46,North,0,0.0,0.0,82,0.00,,,0.00,WUHU216DAVISVP2,2013-01-05 10:06:00,
2013-01-05 03:11:00,26.9,22.4,30.46,North,0,0.0,0.0,83,0.00,,,0.00,WUHU216DAVISVP2,2013-01-05 10:11:00,
2013-01-05 03:16:00,26.8,22.6,30.46,North,0,0.0,0.0,84,0.00,,,0.00,WUHU216DAVISVP2,2013-01-05 10:16:00,
2013-01-05 03:21:00,26.8,22.9,30.46,North,0,0.0,0.0,85,0.00,,,0.00,WUHU216DAVISVP2,2013-01-05 10:21:00,
2013-01-05 03:26:00,27.1,22.9,30.46,North,0,0.0,0.0,84,0.00,,,0.00,WUHU216DAVISVP2,2013-01-05 10:26:00,
2013-01-05 03:31:00,27.4,22.9,30.46,North,0,0.0,0.0,83,0.00,,,0.00,WUHU216DAVISVP2,2013-01-05 10:31:00,
2013-01-05 03:36:00,27.8,23.0,30.46,North,0,0.0,0.0,82,0.00,,,0.00,WUHU216DAVISVP2,2013-01-05 10:36:00,
2013-01-05 03:41:00,27.6,22.5,30.46,North,0,0.0,0.0,81,0.00,,,0.00,WUHU216DAVISVP2,2013-01-05 10:41:00,
2013-01-05 03:46:00,27.9,23.1,30.46,North,0,0.0,0.0,82,0.00,,,0.00,WUHU216DAVISVP2,2013-01-05 10:46:00,
2013-01-05 03:51:00,27.9,22.5,30.46,North,0,0.0,0.0,80,0.00,,,0.00,WUHU216DAVISVP2,2013-01-05 10:51:00,
2013-01-05 03:56:00,27.6,22.2,30.46,North,0,0.0,0.0,80,0.00,,,0.00,WUHU216DAVISVP2,2013-01-05 10:56:00,
2013-01-05 04:01:00,27.7,22.9,30.46,North,0,0.0,0.0,82,0.00,,,0.00,WUHU216DAVISVP2,2013-01-05 11:01:00,
2013-01-05 04:07:00,27.5,22.4,30.46,North,0,0.0,0.0,81,0.00,,,0.00,WUHU216DAVISVP2,2013-01-05 11:07:00,
2013-01-05 04:12:00,27.1,22.3,30.46,North,0,0.0,0.0,82,0.00,,,0.00,WUHU216DAVISVP2,2013-01-05 11:12:00,
2013-01-05 04:17:00,26.9,22.1,30.46,North,0,0.0,0.0,82,0.00,,,0.00,WUHU216DAVISVP2,2013-01-05 11:17:00,
2013-01-05 04:22:00,27.1,22.3,30.46,North,0,0.0,0.0,82,0.00,,,0.00,WUHU216DAVISVP2,2013-01-05 11:22:00,
2013-01-05 04:27:00,27.5,22.7,30.46,North,0,0.0,0.0,82,0.00,,,0.00,WUHU216DAVISVP2,2013-01-05 11:27:00,
2013-01-05 04:32:00,27.7,22.6,30.46,North,0,0.0,0.0,81,0.00,,,0.00,WUHU216DAVISVP2,2013-01-05 11:32:00,
2013-01-05 04:37:00,27.4,22.3,30.46,North,0,0.0,0.0,81,0.00,,,0.00,WUHU216DAVISVP2,2013-01-05 11:37:00,
2013-01-05 04:42:00,27.0,22.2,30.46,North,0,0.0,0.0,82,0.00,,,0.00,WUHU216DAVISVP2,2013-01-05 11:42:00,
2013-01-05 04:47:00,27.3,22.8,30.46,North,0,0.0,0.0,83,0.00,,,0.00,WUHU216DAVISVP2,2013-01-05 11:47:00,
2013-01-05 04:52:00,27.7,22.9,30.46,North,0,0.0,0.0,82,0.00,,,0.00,WUHU216DAVISVP2,2013-01-05 11:52:00,
2013-01-05 04:57:00,27.6,22.8,30.46,North,0,0.0,0.0,82,0.00,,,0.00,WUHU216DAVISVP2,2013-01-05 11:57:00,
2013-01-05 05:02:00,27.6,22.8,30.46,North,0,0.0,0.0,82,0.00,,,0.00,WUHU216DAVISVP2,2013-01-05 12:02:00,
2013-01-05 05:07:00,27.8,23.3,30.45,North,0,0.0,0.0,83,0.00,,,0.00,WUHU216DAVISVP2,2013-01-05 12:07:00,
2013-01-05 05:12:00,28.2,23.4,30.46,North,0,0.0,0.0,82,0.00,,,0.00,WUHU216DAVISVP2,2013-01-05 12:12:00,
2013-01-05 05:17:00,28.2,22.8,30.46,North,0,0.0,0.0,80,0.00,,,0.00,WUHU216DAVISVP2,2013-01-05 12:17:00,
2013-01-05 05:22:00,27.8,23.0,30.46,North,0,0.0,0.0,82,0.00,,,0.00,WUHU216DAVISVP2,2013-01-05 12:22:00,
2013-01-05 05:28:00,27.5,22.7,30.46,North,0,0.0,0.0,82,0.00,,,0.00,WUHU216DAVISVP2,2013-01-05 12:28:00,
2013-01-05 05:33:00,27.8,23.3,30.46,North,0,0.0,0.0,83,0.00,,,0.00,WUHU216DAVISVP2,2013-01-05 12:33:00,
2013-01-05 05:38:00,28.3,23.2,30.46,North,0,0.0,0.0,81,0.00,,,0.00,WUHU216DAVISVP2,2013-01-05 12:38:00,
2013-01-05 05:43:00,28.7,23.0,30.46,North,0,0.0,0.0,79,0.00,,,0.00,WUHU216DAVISVP2,2013-01-05 12:43:00,
2013-01-05 05:48:00,29.1,22.8,30.47,North,0,0.0,0.0,77,0.00,,,0.00,WUHU216DAVISVP2,2013-01-05 12:48:00,
2013-01-05 05:53:00,28.9,22.0,30.47,North,0,0.0,0.0,75,0.00,,,0.00,WUHU216DAVISVP2,2013-01-05 12:53:00,
2013-01-05 05:58:00,28.3,21.4,30.47,North,0,0.0,0.0,75,0.00,,,0.00,WUHU216DAVISVP2,2013-01-05 12:58:00,
2013-01-05 06:03:00,27.0,20.5,30.47,North,0,0.0,0.0,76,0.00,,,0.00,WUHU216DAVISVP2,2013-01-05 13:03:00,
2013-01-05 06:08:00,26.3,19.8,30.47,North,0,0.0,0.0,76,0.00,,,0.00,WUHU216DAVISVP2,2013-01-05 13:08:00,
2013-01-05 06:13:00,24.2,18.3,30.47,North,0,0.0,0.0,78,0.00,,,0.00,WUHU216DAVISVP2,2013-01-05 13:13:00,
2013-01-05 06:19:00,23.5,18.8,30.47,North,0,0.0,0.0,82,0.00,,,0.00,WUHU216DAVISVP2,2013-01-05 13:19:00,
2013-01-05 06:24:00,24.1,19.4,30.47,North,0,0.0,0.0,82,0.00,,,0.00,WUHU216DAVISVP2,2013-01-05 13:24:00,
2013-01-05 06:29:00,25.2,19.6,30.47,North,0,0.0,0.0,79,0.00,,,0.00,WUHU216DAVISVP2,2013-01-05 13:29:00,
2013-01-05 06:34:00,24.5,19.2,30.47,North,0,0.0,0.0,80,0.00,,,0.00,WUHU216DAVISVP2,2013-01-05 13:34:00,
2013-01-05 06:39:00,25.1,20.4,30.48,North,0,0.0,0.0,82,0.00,,,0.00,WUHU216DAVISVP2,2013-01-05 13:39:00,
2013-01-05 06:44:00,26.5,21.2,30.48,North,0,0.0,0.0,80,0.00,,,0.00,WUHU216DAVISVP2,2013-01-05 13:44:00,
2013-01-05 06:49:00,27.0,20.5,30.48,North,0,0.0,0.0,76,0.00,,,0.00,WUHU216DAVISVP2,2013-01-05 13:49:00,
2013-01-05 06:54:00,27.6,21.1,30.48,North,0,0.0,0.0,76,0.00,,,0.00,WUHU216DAVISVP2,2013-01-05 13:54:00,
2013-01-05 06:59:00,27.7,20.5,30.48,North,0,0.0,0.0,74,0.00,,,0.00,WUHU216DAVISVP2,2013-01-05 13:59:00,
2013-01-05 07:04:00,27.6,20.7,30.49,North,0,0.0,0.0,75,0.00,,,0.00,WUHU216DAVISVP2,2013-01-05 14:04:00,
2013-01-05 07:09:00,27.5,20.7,30.49,North,0,0.0,0.0,75,0.00,,,0.00,WUHU216DAVISVP2,2013-01-05 14:09:00,
2013-01-05 07:14:00,27.5,21.0,30.49,North,0,0.0,0.0,76,0.00,,,0.00,WUHU216DAVISVP2,2013-01-05 14:14:00,
2013-01-05 07:19:00,27.9,21.0,30.49,North,0,0.0,0.0,75,0.00,,,0.00,WUHU216DAVISVP2,2013-01-05 14:19:00,
2013-01-05 07:25:00,27.6,20.7,30.49,North,0,0.0,0.0,75,0.00,,,0.00,WUHU216DAVISVP2,2013-01-05 14:25:00,
2013-01-05 07:30:00,27.2,20.7,30.49,North,0,0.0,0.0,76,0.00,,,0.00,WUHU216DAVISVP2,2013-01-05 14:30:00,
2013-01-05 07:35:00,27.0,20.8,30.49,North,0,0.0,0.0,77,0.00,,,0.00,WUHU216DAVISVP2,2013-01-05 14:35:00,
2013-01-05 07:40:00,27.5,21.3,30.49,North,0,0.0,0.0,77,0.00,,,0.00,WUHU216DAVISVP2,2013-01-05 14:40:00,
2013-01-05 07:45:00,28.4,21.8,30.49,North,0,0.0,0.0,76,0.00,,,0.00,WUHU216DAVISVP2,2013-01-05 14:45:00,
2013-01-05 07:50:00,29.5,22.6,30.50,North,0,0.0,0.0,75,0.00,,,0.00,WUHU216DAVISVP2,2013-01-05 14:50:00,
2013-01-05 07:55:00,30.3,23.4,30.50,North,0,0.0,0.0,75,0.00,,,0.00,WUHU216DAVISVP2,2013-01-05 14:55:00,
2013-01-05 08:00:00,30.9,23.9,30.50,North,0,0.0,0.0,75,0.00,,,0.00,WUHU216DAVISVP2,2013-01-05 15:00:00,
2013-01-05 08:05:00,31.4,24.4,30.50,North,0,0.0,0.0,75,0.00,,,0.00,WUHU216DAVISVP2,2013-01-05 15:05:00,
2013-01-05 08:10:00,31.8,24.8,30.50,North,0,0.0,0.0,75,0.00,,,0.00,WUHU216DAVISVP2,2013-01-05 15:10:00,
2013-01-05 08:15:00,32.6,25.0,30.50,North,0,0.0,0.0,73,0.00,,,0.00,WUHU216DAVISVP2,2013-01-05 15:15:00,
2013-01-05 08:20:00,33.9,26.5,30.50,North,0,0.0,0.0,74,0.00,,,0.00,WUHU216DAVISVP2,2013-01-05 15:20:00,
2013-01-05 08:25:00,34.6,26.6,30.50,North,0,0.0,0.0,72,0.00,,,0.00,WUHU216DAVISVP2,2013-01-05 15:25:00,
2013-01-05 08:30:00,35.1,26.4,30.50,North,0,0.0,0.0,70,0.00,,,0.00,WUHU216DAVISVP2,2013-01-05 15:30:00,
2013-01-05 08:36:00,35.1,26.7,30.50,North,0,0.0,0.0,71,0.00,,,0.00,WUHU216DAVISVP2,2013-01-05 15:36:00,
2013-01-05 08:41:00,35.9,27.1,30.50,North,0,0.0,0.0,70,0.00,,,0.00,WUHU216DAVISVP2,2013-01-05 15:41:00,
2013-01-05 08:46:00,36.6,27.8,30.50,North,0,0.0,0.0,70,0.00,,,0.00,WUHU216DAVISVP2,2013-01-05 15:46:00,
2013-01-05 08:51:00,37.3,28.8,30.50,North,0,0.0,0.0,71,0.00,,,0.00,WUHU216DAVISVP2,2013-01-05 15:51:00,
2013-01-05 08:56:00,37.8,27.5,30.50,North,0,0.0,0.0,66,0.00,,,0.00,WUHU216DAVISVP2,2013-01-05 15:56:00,
2013-01-05 09:01:00,37.9,26.9,30.50,North,0,0.0,0.0,64,0.00,,,0.00,WUHU216DAVISVP2,2013-01-05 16:01:00,
2013-01-05 09:06:00,38.2,27.2,30.51,North,0,0.0,0.0,64,0.00,,,0.00,WUHU216DAVISVP2,2013-01-05 16:06:00,
2013-01-05 09:11:00,38.3,25.7,30.51,North,0,0.0,0.0,60,0.00,,,0.00,WUHU216DAVISVP2,2013-01-05 16:11:00,
2013-01-05 09:16:00,38.4,26.6,30.50,North,0,0.0,0.0,62,0.00,,,0.00,WUHU216DAVISVP2,2013-01-05 16:16:00,
2013-01-05 09:21:00,38.5,26.7,30.51,North,0,0.0,0.0,62,0.00,,,0.00,WUHU216DAVISVP2,2013-01-05 16:21:00,
2013-01-05 09:26:00,38.7,27.6,30.51,North,0,0.0,0.0,64,0.00,,,0.00,WUHU216DAVISVP2,2013-01-05 16:26:00,
2013-01-05 09:31:00,38.9,27.1,30.51,North,0,0.0,0.0,62,0.00,,,0.00,WUHU216DAVISVP2,2013-01-05 16:31:00,
2013-01-05 09:36:00,38.9,27.1,30.51,North,0,0.0,0.0,62,0.00,,,0.00,WUHU216DAVISVP2,2013-01-05 16:36:00,
2013-01-05 09:41:00,39.0,27.5,30.51,North,0,0.0,0.0,63,0.00,,,0.00,WUHU216DAVISVP2,2013-01-05 16:41:00,
2013-01-05 09:46:00,39.4,27.5,30.51,North,0,0.0,0.0,62,0.00,,,0.00,WUHU216DAVISVP2,2013-01-05 16:46:00,
2013-01-05 09:51:00,39.6,26.1,30.51,North,0,0.0,0.0,58,0.00,,,0.00,WUHU216DAVISVP2,2013-01-05 16:51:00,
2013-01-05 09:57:00,40.0,25.1,30.51,NE,52,3.0,6.0,55,0.00,,,0.00,WUHU216DAVISVP2,2013-01-05 16:57:00,
2013-01-05 10:02:00,40.0,25.6,30.51,ENE,66,3.0,4.0,56,0.00,,,0.00,WUHU216DAVISVP2,2013-01-05 17:02:00,
2013-01-05 10:07:00,40.2,25.8,30.51,North,0,0.0,0.0,56,0.00,,,0.00,WUHU216DAVISVP2,2013-01-05 17:07:00,
2013-01-05 10:12:00,40.5,25.6,30.51,NE,54,3.0,5.0,55,0.00,,,0.00,WUHU216DAVISVP2,2013-01-05 17:12:00,
2013-01-05 10:17:00,40.8,24.0,30.51,North,0,0.0,0.0,51,0.00,,,0.00,WUHU216DAVISVP2,2013-01-05 17:17:00,
2013-01-05 10:22:00,41.1,23.8,30.51,North,0,0.0,0.0,50,0.00,,,0.00,WUHU216DAVISVP2,2013-01-05 17:22:00,
2013-01-05 10:27:00,41.3,24.5,30.51,North,0,0.0,0.0,51,0.00,,,0.00,WUHU216DAVISVP2,2013-01-05 17:27:00,
2013-01-05 10:32:00,41.7,24.4,30.51,East,94,3.0,5.0,50,0.00,,,0.00,WUHU216DAVISVP2,2013-01-05 17:32:00,
2013-01-05 10:37:00,42.0,22.6,30.50,ENE,78,4.0,9.0,46,0.00,,,0.00,WUHU216DAVISVP2,2013-01-05 17:37:00,
2013-01-05 10:42:00,42.2,22.8,30.50,ENE,64,4.0,7.0,46,0.00,,,0.00,WUHU216DAVISVP2,2013-01-05 17:42:00,
2013-01-05 10:47:00,42.4,24.0,30.50,ENE,74,4.0,7.0,48,0.00,,,0.00,WUHU216DAVISVP2,2013-01-05 17:47:00,
2013-01-05 10:52:00,42.6,22.6,30.50,East,80,3.0,7.0,45,0.00,,,0.00,WUHU216DAVISVP2,2013-01-05 17:52:00,
2013-01-05 10:57:00,43.1,23.1,30.50,East,99,3.0,6.0,45,0.00,,,0.00,WUHU216DAVISVP2,2013-01-05 17:57:00,
2013-01-05 11:02:00,43.5,22.9,30.50,East,79,3.0,5.0,44,0.00,,,0.00,WUHU216DAVISVP2,2013-01-05 18:02:00,
2013-01-05 11:07:00,43.7,22.5,30.50,ENE,76,4.0,5.0,43,0.00,,,0.00,WUHU216DAVISVP2,2013-01-05 18:07:00,
2013-01-05 11:13:00,43.8,22.0,30.49,East,96,3.0,6.0,42,0.00,,,0.00,WUHU216DAVISVP2,2013-01-05 18:13:00,
2013-01-05 11:18:00,44.1,20.5,30.49,East,79,4.0,7.0,39,0.00,,,0.00,WUHU216DAVISVP2,2013-01-05 18:18:00,
2013-01-05 11:23:00,44.4,22.6,30.49,East,81,4.0,8.0,42,0.00,,,0.00,WUHU216DAVISVP2,2013-01-05 18:23:00,
2013-01-05 11:28:00,44.7,21.0,30.49,ENE,66,3.0,6.0,39,0.00,,,0.00,WUHU216DAVISVP2,2013-01-05 18:28:00,
2013-01-05 11:33:00,45.1,24.3,30.48,ENE,58,3.0,5.0,44,0.00,,,0.00,WUHU216DAVISVP2,2013-01-05 18:33:00,
2013-01-05 11:38:00,45.1,21.4,30.48,NE,51,5.0,8.0,39,0.00,,,0.00,WUHU216DAVISVP2,2013-01-05 18:38:00,
2013-01-05 11:43:00,45.0,21.3,30.48,NE,46,4.0,8.0,39,0.00,,,0.00,WUHU216DAVISVP2,2013-01-05 18:43:00,
2013-01-05 11:48:00,45.0,22.5,30.47,ENE,63,4.0,7.0,41,0.00,,,0.00,WUHU216DAVISVP2,2013-01-05 18:48:00,
2013-01-05 11:53:00,45.3,24.5,30.47,East,93,4.0,9.0,44,0.00,,,0.00,WUHU216DAVISVP2,2013-01-05 18:53:00,
2013-01-05 11:58:00,45.8,22.6,30.47,NE,56,3.0,5.0,40,0.00,,,0.00,WUHU216DAVISVP2,2013-01-05 18:58:00,
2013-01-05 12:03:00,46.3,21.9,30.46,NE,54,4.0,7.0,38,0.00,,,0.00,WUHU216DAVISVP2,2013-01-05 19:03:00,
2013-01-05 12:08:00,46.4,20.0,30.46,ENE,57,4.0,8.0,35,0.00,,,0.00,WUHU216DAVISVP2,2013-01-05 19:08:00,
2013-01-05 12:13:00,46.3,19.9,30.45,ENE,78,3.0,7.0,35,0.00,,,0.00,WUHU216DAVISVP2,2013-01-05 19:13:00,
2013-01-05 12:18:00,46.4,19.3,30.45,ENE,59,3.0,5.0,34,0.00,,,0.00,WUHU216DAVISVP2,2013-01-05 19:18:00,
2013-01-05 12:23:00,46.8,19.0,30.45,ENE,67,3.0,5.0,33,0.00,,,0.00,WUHU216DAVISVP2,2013-01-05 19:23:00,
2013-01-05 12:28:00,47.2,20.0,30.44,East,82,4.0,8.0,34,0.00,,,0.00,WUHU216DAVISVP2,2013-01-05 19:28:00,
2013-01-05 12:33:00,47.2,17.9,30.44,ENE,77,4.0,7.0,31,0.00,,,0.00,WUHU216DAVISVP2,2013-01-05 19:33:00,
2013-01-05 12:39:00,47.5,18.1,30.44,East,89,4.0,7.0,31,0.00,,,0.00,WUHU216DAVISVP2,2013-01-05 19:39:00,
2013-01-05 12:44:00,47.6,19.7,30.43,East,91,4.0,9.0,33,0.00,,,0.00,WUHU216DAVISVP2,2013-01-05 19:44:00,
2013-01-05 12:49:00,48.1,17.1,30.43,East,94,4.0,8.0,29,0.00,,,0.00,WUHU216DAVISVP2,2013-01-05 19:49:00,
2013-01-05 12:54:00,48.2,18.0,30.43,ENE,70,5.0,9.0,30,0.00,,,0.00,WUHU216DAVISVP2,2013-01-05 19:54:00,
2013-01-05 12:59:00,48.3,18.8,30.43,ENE,68,5.0,8.0,31,0.00,,,0.00,WUHU216DAVISVP2,2013-01-05 19:59:00,
2013-01-05 13:04:00,48.3,17.3,30.43,ENE,70,5.0,10.0,29,0.00,,,0.00,WUHU216DAVISVP2,2013-01-05 20:04:00,
2013-01-05 13:09:00,48.6,13.3,30.42,East,81,4.0,7.0,24,0.00,,,0.00,WUHU216DAVISVP2,2013-01-05 20:09:00,
2013-01-05 13:14:00,48.7,16.0,30.42,ENE,77,4.0,8.0,27,0.00,,,0.00,WUHU216DAVISVP2,2013-01-05 20:14:00,
2013-01-05 13:19:00,49.0,17.1,30.42,ENE,62,3.0,5.0,28,0.00,,,0.00,WUHU216DAVISVP2,2013-01-05 20:19:00,
2013-01-05 13:24:00,49.1,7.3,30.42,ENE,68,4.0,8.0,18,0.00,,,0.00,WUHU216DAVISVP2,2013-01-05 20:24:00,
2013-01-05 13:29:00,49.1,15.5,30.42,East,83,4.0,8.0,26,0.00,,,0.00,WUHU216DAVISVP2,2013-01-05 20:29:00,
2013-01-05 13:34:00,49.4,14.0,30.42,ENE,68,4.0,7.0,24,0.00,,,0.00,WUHU216DAVISVP2,2013-01-05 20:34:00,
2013-01-05 13:39:00,49.5,15.0,30.42,ENE,66,5.0,9.0,25,0.00,,,0.00,WUHU216DAVISVP2,2013-01-05 20:39:00,
2013-01-05 13:44:00,49.5,15.8,30.42,ENE,71,4.0,9.0,26,0.00,,,0.00,WUHU216DAVISVP2,2013-01-05 20:44:00,
2013-01-05 13:49:00,49.8,14.3,30.42,ENE,58,3.0,7.0,24,0.00,,,0.00,WUHU216DAVISVP2,2013-01-05 20:49:00,
2013-01-05 13:54:00,49.9,15.3,30.42,ENE,72,4.0,9.0,25,0.00,,,0.00,WUHU216DAVISVP2,2013-01-05 20:54:00,
2013-01-05 14:00:00,50.3,13.8,30.41,NE,50,4.0,8.0,23,0.00,,,0.00,WUHU216DAVISVP2,2013-01-05 21:00:00,
2013-01-05 14:05:00,50.1,16.4,30.41,ENE,65,3.0,5.0,26,0.00,,,0.00,WUHU216DAVISVP2,2013-01-05 21:05:00,
2013-01-05 14:10:00,50.4,16.6,30.41,NE,53,2.0,7.0,26,0.00,,,0.00,WUHU216DAVISVP2,2013-01-05 21:10:00,
2013-01-05 14:15:00,50.5,16.7,30.41,East,80,4.0,7.0,26,0.00,,,0.00,WUHU216DAVISVP2,2013-01-05 21:15:00,
2013-01-05 14:20:00,50.6,16.8,30.41,NE,56,4.0,7.0,26,0.00,,,0.00,WUHU216DAVISVP2,2013-01-05 21:20:00,
2013-01-05 14:25:00,50.8,17.0,30.40,East,82,3.0,6.0,26,0.00,,,0.00,WUHU216DAVISVP2,2013-01-05 21:25:00,
2013-01-05 14:30:00,51.4,16.6,30.40,East,79,3.0,7.0,25,0.00,,,0.00,WUHU216DAVISVP2,2013-01-05 21:30:00,
2013-01-05 14:35:00,51.3,16.5,30.40,ESE,111,5.0,8.0,25,0.00,,,0.00,WUHU216DAVISVP2,2013-01-05 21:35:00,
2013-01-05 14:40:00,51.2,17.3,30.40,SE,126,4.0,8.0,26,0.00,,,0.00,WUHU216DAVISVP2,2013-01-05 21:40:00,
2013-01-05 14:45:00,51.2,16.4,30.40,ESE,115,4.0,9.0,25,0.00,,,0.00,WUHU216DAVISVP2,2013-01-05 21:45:00,
2013-01-05 14:50:00,51.2,16.4,30.40,ESE,108,4.0,8.0,25,0.00,,,0.00,WUHU216DAVISVP2,2013-01-05 21:50:00,
2013-01-05 14:55:00,51.3,16.5,30.40,ESE,121,3.0,7.0,25,0.00,,,0.00,WUHU216DAVISVP2,2013-01-05 21:55:00,
2013-01-05 15:00:00,51.3,16.5,30.40,ESE,113,3.0,7.0,25,0.00,,,0.00,WUHU216DAVISVP2,2013-01-05 22:00:00,
2013-01-05 15:06:00,51.2,16.4,30.40,SE,131,3.0,6.0,25,0.00,,,0.00,WUHU216DAVISVP2,2013-01-05 22:06:00,
2013-01-05 15:11:00,51.0,16.2,30.40,SE,130,4.0,7.0,25,0.00,,,0.00,WUHU216DAVISVP2,2013-01-05 22:11:00,
2013-01-05 15:16:00,51.0,16.2,30.40,SE,124,3.0,6.0,25,0.00,,,0.00,WUHU216DAVISVP2,2013-01-05 22:16:00,
2013-01-05 15:21:00,51.1,16.3,30.40,SE,124,3.0,9.0,25,0.00,,,0.00,WUHU216DAVISVP2,2013-01-05 22:21:00,
2013-01-05 15:26:00,51.1,16.3,30.40,East,90,3.0,6.0,25,0.00,,,0.00,WUHU216DAVISVP2,2013-01-05 22:26:00,
2013-01-05 15:31:00,51.2,15.5,30.40,SE,124,3.0,6.0,24,0.00,,,0.00,WUHU216DAVISVP2,2013-01-05 22:31:00,
2013-01-05 15:36:00,51.1,15.4,30.40,ESE,122,3.0,6.0,24,0.00,,,0.00,WUHU216DAVISVP2,2013-01-05 22:36:00,
2013-01-05 15:41:00,51.1,16.3,30.40,ESE,111,4.0,7.0,25,0.00,,,0.00,WUHU216DAVISVP2,2013-01-05 22:41:00,
2013-01-05 15:46:00,51.2,15.5,30.40,SE,124,4.0,7.0,24,0.00,,,0.00,WUHU216DAVISVP2,2013-01-05 22:46:00,
2013-01-05 15:51:00,51.2,15.5,30.40,ESE,113,3.0,6.0,24,0.00,,,0.00,WUHU216DAVISVP2,2013-01-05 22:51:00,
2013-01-05 15:56:00,51.2,15.5,30.40,ESE,105,3.0,7.0,24,0.00,,,0.00,WUHU216DAVISVP2,2013-01-05 22:56:00,
2013-01-05 16:01:00,50.9,15.2,30.40,ESE,114,3.0,5.0,24,0.00,,,0.00,WUHU216DAVISVP2,2013-01-05 23:01:00,
2013-01-05 16:06:00,50.6,15.0,30.40,ESE,119,3.0,6.0,24,0.00,,,0.00,WUHU216DAVISVP2,2013-01-05 23:06:00,
2013-01-05 16:11:00,50.5,14.9,30.40,ESE,106,3.0,7.0,24,0.00,,,0.00,WUHU216DAVISVP2,2013-01-05 23:11:00,
2013-01-05 16:16:00,50.5,14.9,30.40,ESE,121,2.0,3.0,24,0.00,,,0.00,WUHU216DAVISVP2,2013-01-05 23:16:00,
2013-01-05 16:21:00,50.4,14.8,30.40,ESE,122,2.0,3.0,24,0.00,,,0.00,WUHU216DAVISVP2,2013-01-05 23:21:00,
2013-01-05 16:27:00,50.2,14.6,30.40,North,0,0.0,0.0,24,0.00,,,0.00,WUHU216DAVISVP2,2013-01-05 23:27:00,
2013-01-05 16:32:00,50.1,13.6,30.40,North,0,0.0,0.0,23,0.00,,,0.00,WUHU216DAVISVP2,2013-01-05 23:32:00,
2013-01-05 16:37:00,50.0,15.4,30.40,North,0,0.0,0.0,25,0.00,,,0.00,WUHU216DAVISVP2,2013-01-05 23:37:00,
2013-01-05 16:42:00,49.9,15.3,30.40,North,0,0.0,0.0,25,0.00,,,0.00,WUHU216DAVISVP2,2013-01-05 23:42:00,
2013-01-05 16:47:00,49.7,15.1,30.40,ENE,75,3.0,5.0,25,0.00,,,0.00,WUHU216DAVISVP2,2013-01-05 23:47:00,
2013-01-05 16:52:00,49.4,14.9,30.40,East,98,2.0,5.0,25,0.00,,,0.00,WUHU216DAVISVP2,2013-01-05 23:52:00,
2013-01-05 16:57:00,49.1,15.5,30.41,North,0,0.0,0.0,26,0.00,,,0.00,WUHU216DAVISVP2,2013-01-05 23:57:00,
2013-01-05 17:02:00,48.9,15.3,30.41,North,0,0.0,0.0,26,0.00,,,0.00,WUHU216DAVISVP2,2013-01-06 00:02:00,
2013-01-05 17:07:00,48.5,15.0,30.41,North,0,0.0,0.0,26,0.00,,,0.00,WUHU216DAVISVP2,2013-01-06 00:07:00,
2013-01-05 17:12:00,48.1,15.5,30.41,North,0,0.0,0.0,27,0.00,,,0.00,WUHU216DAVISVP2,2013-01-06 00:12:00,
2013-01-05 17:17:00,47.6,15.1,30.41,North,0,0.0,0.0,27,0.00,,,0.00,WUHU216DAVISVP2,2013-01-06 00:17:00,
2013-01-05 17:22:00,46.9,15.3,30.41,North,0,0.0,0.0,28,0.00,,,0.00,WUHU216DAVISVP2,2013-01-06 00:22:00,
2013-01-05 17:27:00,46.3,15.5,30.41,North,0,0.0,0.0,29,0.00,,,0.00,WUHU216DAVISVP2,2013-01-06 00:27:00,
2013-01-05 17:32:00,45.6,14.9,30.41,North,0,0.0,0.0,29,0.00,,,0.00,WUHU216DAVISVP2,2013-01-06 00:32:00,
2013-01-05 17:37:00,44.8,15.0,30.41,North,0,0.0,0.0,30,0.00,,,0.00,WUHU216DAVISVP2,2013-01-06 00:37:00,
2013-01-05 17:42:00,44.1,14.4,30.41,North,0,0.0,0.0,30,0.00,,,0.00,WUHU216DAVISVP2,2013-01-06 00:42:00,
2013-01-05 17:47:00,43.2,14.4,30.41,North,0,0.0,0.0,31,0.00,,,0.00,WUHU216DAVISVP2,2013-01-06 00:47:00,
2013-01-05 17:53:00,42.1,14.1,30.41,North,0,0.0,0.0,32,0.00,,,0.00,WUHU216DAVISVP2,2013-01-06 00:53:00,
2013-01-05 17:58:00,40.9,14.4,30.41,North,0,0.0,0.0,34,0.00,,,0.00,WUHU216DAVISVP2,2013-01-06 00:58:00,
2013-01-05 18:03:00,40.0,14.3,30.41,North,0,0.0,0.0,35,0.00,,,0.00,WUHU216DAVISVP2,2013-01-06 01:03:00,
2013-01-05 18:08:00,39.3,14.3,30.41,North,0,0.0,0.0,36,0.00,,,0.00,WUHU216DAVISVP2,2013-01-06 01:08:00,
2013-01-05 18:13:00,39.0,14.7,30.41,North,0,0.0,0.0,37,0.00,,,0.00,WUHU216DAVISVP2,2013-01-06 01:13:00,
2013-01-05 18:18:00,38.7,15.0,30.41,North,0,0.0,0.0,38,0.00,,,0.00,WUHU216DAVISVP2,2013-01-06 01:18:00,
2013-01-05 18:23:00,38.2,15.2,30.41,North,0,0.0,0.0,39,0.00,,,0.00,WUHU216DAVISVP2,2013-01-06 01:23:00,
2013-01-05 18:28:00,37.5,14.6,30.41,North,0,0.0,0.0,39,0.00,,,0.00,WUHU216DAVISVP2,2013-01-06 01:28:00,
2013-01-05 18:33:00,36.8,15.1,30.42,North,0,0.0,0.0,41,0.00,,,0.00,WUHU216DAVISVP2,2013-01-06 01:33:00,
2013-01-05 18:38:00,36.3,14.6,30.42,North,0,0.0,0.0,41,0.00,,,0.00,WUHU216DAVISVP2,2013-01-06 01:38:00,
2013-01-05 18:43:00,35.9,14.8,30.42,North,0,0.0,0.0,42,0.00,,,0.00,WUHU216DAVISVP2,2013-01-06 01:43:00,
2013-01-05 18:48:00,35.8,14.8,30.42,North,0,0.0,0.0,42,0.00,,,0.00,WUHU216DAVISVP2,2013-01-06 01:48:00,
2013-01-05 18:53:00,36.1,15.0,30.42,North,0,0.0,0.0,42,0.00,,,0.00,WUHU216DAVISVP2,2013-01-06 01:53:00,
2013-01-05 18:58:00,36.5,14.8,30.42,North,0,0.0,0.0,41,0.00,,,0.00,WUHU216DAVISVP2,2013-01-06 01:58:00,
2013-01-05 19:03:00,36.6,14.9,30.42,North,0,0.0,0.0,41,0.00,,,0.00,WUHU216DAVISVP2,2013-01-06 02:03:00,
2013-01-05 19:08:00,36.6,13.8,30.42,North,0,0.0,0.0,39,0.00,,,0.00,WUHU216DAVISVP2,2013-01-06 02:08:00,
2013-01-05 19:14:00,37.0,14.1,30.42,North,0,0.0,0.0,39,0.00,,,0.00,WUHU216DAVISVP2,2013-01-06 02:14:00,
2013-01-05 19:19:00,37.0,13.5,30.41,North,0,0.0,0.0,38,0.00,,,0.00,WUHU216DAVISVP2,2013-01-06 02:19:00,
2013-01-05 19:24:00,37.2,12.4,30.41,North,0,0.0,0.0,36,0.00,,,0.00,WUHU216DAVISVP2,2013-01-06 02:24:00,
2013-01-05 19:29:00,37.3,12.5,30.41,North,0,0.0,0.0,36,0.00,,,0.00,WUHU216DAVISVP2,2013-01-06 02:29:00,
2013-01-05 19:34:00,37.7,12.3,30.41,North,0,0.0,0.0,35,0.00,,,0.00,WUHU216DAVISVP2,2013-01-06 02:34:00,
2013-01-05 19:39:00,38.0,11.9,30.41,North,0,0.0,0.0,34,0.00,,,0.00,WUHU216DAVISVP2,2013-01-06 02:39:00,
2013-01-05 19:44:00,38.1,12.0,30.41,North,0,0.0,0.0,34,0.00,,,0.00,WUHU216DAVISVP2,2013-01-06 02:44:00,
2013-01-05 19:49:00,38.1,12.0,30.41,North,0,0.0,0.0,34,0.00,,,0.00,WUHU216DAVISVP2,2013-01-06 02:49:00,
2013-01-05 19:54:00,37.9,12.4,30.41,North,0,0.0,0.0,35,0.00,,,0.00,WUHU216DAVISVP2,2013-01-06 02:54:00,
2013-01-05 19:59:00,37.6,11.5,30.41,North,0,0.0,0.0,34,0.00,,,0.00,WUHU216DAVISVP2,2013-01-06 02:59:00,
2013-01-05 20:04:00,37.5,11.4,30.41,North,0,0.0,0.0,34,0.00,,,0.00,WUHU216DAVISVP2,2013-01-06 03:04:00,
2013-01-05 20:09:00,37.4,11.3,30.41,North,0,0.0,0.0,34,0.00,,,0.00,WUHU216DAVISVP2,2013-01-06 03:09:00,
2013-01-05 20:14:00,37.4,10.7,30.41,North,0,0.0,0.0,33,0.00,,,0.00,WUHU216DAVISVP2,2013-01-06 03:14:00,
2013-01-05 20:19:00,37.2,9.8,30.41,North,0,0.0,0.0,32,0.00,,,0.00,WUHU216DAVISVP2,2013-01-06 03:19:00,
2013-01-05 20:24:00,37.2,9.8,30.41,North,0,0.0,0.0,32,0.00,,,0.00,WUHU216DAVISVP2,2013-01-06 03:24:00,
2013-01-05 20:29:00,37.0,9.6,30.41,North,0,0.0,0.0,32,0.00,,,0.00,WUHU216DAVISVP2,2013-01-06 03:29:00,
2013-01-05 20:35:00,37.0,10.3,30.41,North,0,0.0,0.0,33,0.00,,,0.00,WUHU216DAVISVP2,2013-01-06 03:35:00,
2013-01-05 20:40:00,36.9,10.9,30.42,North,0,0.0,0.0,34,0.00,,,0.00,WUHU216DAVISVP2,2013-01-06 03:40:00,
2013-01-05 20:45:00,37.1,11.1,30.42,North,0,0.0,0.0,34,0.00,,,0.00,WUHU216DAVISVP2,2013-01-06 03:45:00,
2013-01-05 20:50:00,37.4,11.3,30.42,North,0,0.0,0.0,34,0.00,,,0.00,WUHU216DAVISVP2,2013-01-06 03:50:00,
2013-01-05 20:55:00,37.5,10.7,30.42,North,0,0.0,0.0,33,0.00,,,0.00,WUHU216DAVISVP2,2013-01-06 03:55:00,
2013-01-05 21:00:00,37.6,10.8,30.41,North,0,0.0,0.0,33,0.00,,,0.00,WUHU216DAVISVP2,2013-01-06 04:00:00,
2013-01-05 21:05:00,37.7,11.6,30.41,North,0,0.0,0.0,34,0.00,,,0.00,WUHU216DAVISVP2,2013-01-06 04:05:00,
2013-01-05 21:10:00,37.7,11.6,30.42,North,0,0.0,0.0,34,0.00,,,0.00,WUHU216DAVISVP2,2013-01-06 04:10:00,
2013-01-05 21:15:00,37.7,11.6,30.42,North,0,0.0,0.0,34,0.00,,,0.00,WUHU216DAVISVP2,2013-01-06 04:15:00,
2013-01-05 21:20:00,37.6,11.5,30.42,North,0,0.0,0.0,34,0.00,,,0.00,WUHU216DAVISVP2,2013-01-06 04:20:00,
2013-01-05 21:25:00,37.4,12.0,30.41,North,0,0.0,0.0,35,0.00,,,0.00,WUHU216DAVISVP2,2013-01-06 04:25:00,
2013-01-05 21:30:00,36.9,12.2,30.41,North,0,0.0,0.0,36,0.00,,,0.00,WUHU216DAVISVP2,2013-01-06 04:30:00,
2013-01-05 21:35:00,36.3,11.6,30.41,North,0,0.0,0.0,36,0.00,,,0.00,WUHU216DAVISVP2,2013-01-06 04:35:00,
2013-01-05 21:40:00,35.9,11.9,30.41,North,0,0.0,0.0,37,0.00,,,0.00,WUHU216DAVISVP2,2013-01-06 04:40:00,
2013-01-05 21:45:00,35.7,12.3,30.41,North,0,0.0,0.0,38,0.00,,,0.00,WUHU216DAVISVP2,2013-01-06 04:45:00,
2013-01-05 21:51:00,35.6,12.3,30.41,North,0,0.0,0.0,38,0.00,,,0.00,WUHU216DAVISVP2,2013-01-06 04:51:00,
2013-01-05 21:56:00,35.6,12.3,30.42,North,0,0.0,0.0,38,0.00,,,0.00,WUHU216DAVISVP2,2013-01-06 04:56:00,
2013-01-05 22:01:00,35.9,12.5,30.42,North,0,0.0,0.0,38,0.00,,,0.00,WUHU216DAVISVP2,2013-01-06 05:01:00,
2013-01-05 22:06:00,36.0,12.6,30.42,North,0,0.0,0.0,38,0.00,,,0.00,WUHU216DAVISVP2,2013-01-06 05:06:00,
2013-01-05 22:11:00,35.9,12.5,30.42,North,0,0.0,0.0,38,0.00,,,0.00,WUHU216DAVISVP2,2013-01-06 05:11:00,
2013-01-05 22:16:00,35.6,12.3,30.42,North,0,0.0,0.0,38,0.00,,,0.00,WUHU216DAVISVP2,2013-01-06 05:16:00,
2013-01-05 22:21:00,35.4,12.7,30.42,North,0,0.0,0.0,39,0.00,,,0.00,WUHU216DAVISVP2,2013-01-06 05:21:00,
2013-01-05 22:26:00,35.1,12.4,30.42,North,0,0.0,0.0,39,0.00,,,0.00,WUHU216DAVISVP2,2013-01-06 05:26:00,
2013-01-05 22:31:00,35.1,12.4,30.42,North,0,0.0,0.0,39,0.00,,,0.00,WUHU216DAVISVP2,2013-01-06 05:31:00,
2013-01-05 22:36:00,35.0,12.3,30.42,North,0,0.0,0.0,39,0.00,,,0.00,WUHU216DAVISVP2,2013-01-06 05:36:00,
2013-01-05 22:41:00,34.9,12.8,30.42,North,0,0.0,0.0,40,0.00,,,0.00,WUHU216DAVISVP2,2013-01-06 05:41:00,
2013-01-05 22:46:00,35.1,12.4,30.41,North,0,0.0,0.0,39,0.00,,,0.00,WUHU216DAVISVP2,2013-01-06 05:46:00,
2013-01-05 22:51:00,35.1,12.4,30.41,North,0,0.0,0.0,39,0.00,,,0.00,WUHU216DAVISVP2,2013-01-06 05:51:00,
2013-01-05 22:56:00,35.4,12.7,30.41,North,0,0.0,0.0,39,0.00,,,0.00,WUHU216DAVISVP2,2013-01-06 05:56:00,
2013-01-05 23:02:00,35.5,12.2,30.41,North,0,0.0,0.0,38,0.00,,,0.00,WUHU216DAVISVP2,2013-01-06 06:02:00,
2013-01-05 23:07:00,35.3,12.6,30.41,North,0,0.0,0.0,39,0.00,,,0.00,WUHU216DAVISVP2,2013-01-06 06:07:00,
2013-01-05 23:12:00,35.0,12.3,30.41,North,0,0.0,0.0,39,0.00,,,0.00,WUHU216DAVISVP2,2013-01-06 06:12:00,
2013-01-05 23:17:00,34.9,12.2,30.41,North,0,0.0,0.0,39,0.00,,,0.00,WUHU216DAVISVP2,2013-01-06 06:17:00,
2013-01-05 23:22:00,35.3,12.6,30.41,North,0,0.0,0.0,39,0.00,,,0.00,WUHU216DAVISVP2,2013-01-06 06:22:00,
2013-01-05 23:27:00,35.4,12.7,30.40,North,0,0.0,0.0,39,0.00,,,0.00,WUHU216DAVISVP2,2013-01-06 06:27:00,
2013-01-05 23:32:00,35.2,13.1,30.40,North,0,0.0,0.0,40,0.00,,,0.00,WUHU216DAVISVP2,2013-01-06 06:32:00,
2013-01-05 23:37:00,34.8,12.7,30.40,North,0,0.0,0.0,40,0.00,,,0.00,WUHU216DAVISVP2,2013-01-06 06:37:00,
2013-01-05 23:42:00,34.7,12.6,30.40,North,0,0.0,0.0,40,0.00,,,0.00,WUHU216DAVISVP2,2013-01-06 06:42:00,
2013-01-05 23:47:00,34.8,12.7,30.40,North,0,0.0,0.0,40,0.00,,,0.00,WUHU216DAVISVP2,2013-01-06 06:47:00,
2013-01-05 23:52:00,34.9,12.8,30.40,North,0,0.0,0.0,40,0.00,,,0.00,WUHU216DAVISVP2,2013-01-06 06:52:00,
2013-01-05 23:57:00,35.0,12.9,30.39,North,0,0.0,0.0,40,0.00,,,0.00,WUHU216DAVISVP2,2013-01-06 06:57:00,